createdAt,value
2019-05-23T00:02:16.276Z,3.22
2019-05-23T00:07:26.951Z,3.42
2019-05-23T00:09:58.790Z,3.25
2019-05-23T00:12:44.874Z,3.50
2019-05-23T00:15:39.247Z,3.10
2019-05-23T00:18:09.627Z,2.92
2019-05-23T00:20:39.921Z,2.85
2019-05-23T00:23:10.966Z,2.83
2019-05-23T00:25:40.496Z,3.00
2019-05-23T00:28:11.697Z,2.70
2019-05-23T00:30:46.243Z,2.45
2019-05-23T00:33:18.149Z,2.75
2019-05-23T00:35:47.977Z,3.72
2019-05-23T00:38:19.310Z,2.70
2019-05-23T00:40:50.830Z,2.90
2019-05-23T00:43:22.448Z,3.65
2019-05-23T00:45:52.068Z,3.20
2019-05-23T00:48:22.205Z,2.50
2019-05-23T00:50:53.016Z,2.60
2019-05-23T00:53:23.637Z,3.10
2019-05-23T00:55:53.687Z,3.15
2019-05-23T00:58:23.516Z,3.50
2019-05-23T01:03:47.393Z,3.50
2019-05-23T01:06:18.536Z,3.10
2019-05-23T01:08:48.846Z,3.30
2019-05-23T01:11:19.689Z,3.35
2019-05-23T01:13:49.044Z,3.52
2019-05-23T01:16:18.983Z,4.05
2019-05-23T01:18:48.403Z,4.28
2019-05-23T01:24:08.561Z,4.85
2019-05-23T01:26:38.603Z,5.20
2019-05-23T01:29:09.029Z,5.47
2019-05-23T01:31:40.557Z,5.62
2019-05-23T01:34:11.762Z,5.20
2019-05-23T01:36:42.180Z,5.28
2019-05-23T01:39:12.214Z,5.60
2019-05-23T01:41:42.437Z,4.90
2019-05-23T01:44:14.236Z,4.30
2019-05-23T01:46:43.954Z,4.28
2019-05-23T01:49:13.688Z,4.05
2019-05-23T01:51:43.628Z,4.05
2019-05-23T01:54:13.957Z,3.70
2019-05-23T01:56:44.492Z,3.72
2019-05-23T01:59:14.629Z,4.42
2019-05-23T02:01:44.187Z,4.00
2019-05-23T02:04:13.609Z,3.75
2019-05-23T02:06:43.033Z,3.47
2019-05-23T02:09:14.278Z,3.70
2019-05-23T02:11:43.726Z,2.90
2019-05-23T02:14:14.743Z,3.20
2019-05-23T02:16:45.474Z,2.67
2019-05-23T02:19:15.517Z,2.98
2019-05-23T02:21:44.981Z,2.70
2019-05-23T02:24:14.607Z,3.08
2019-05-23T02:26:44.840Z,2.65
2019-05-23T02:29:15.776Z,2.98
2019-05-23T02:31:45.410Z,2.75
2019-05-23T02:34:14.844Z,3.10
2019-05-23T02:36:44.354Z,3.10
2019-05-23T02:39:15.373Z,3.47
2019-05-23T02:41:46.445Z,3.42
2019-05-23T02:44:20.743Z,3.30
2019-05-23T02:47:09.048Z,2.87
2019-05-23T02:49:40.852Z,3.22
2019-05-23T02:52:28.705Z,3.37
2019-05-23T02:54:59.024Z,3.72
2019-05-23T02:57:30.365Z,3.17
2019-05-23T03:00:03.896Z,3.30
2019-05-23T03:02:37.799Z,3.10
2019-05-23T03:05:10.450Z,3.25
2019-05-23T03:07:42.202Z,2.87
2019-05-23T03:10:13.386Z,2.98
2019-05-23T03:12:45.429Z,3.62
2019-05-23T03:15:15.958Z,3.95
2019-05-23T03:17:52.781Z,3.80
2019-05-23T03:20:22.216Z,3.70
2019-05-23T03:22:56.317Z,3.58
2019-05-23T03:25:39.178Z,3.35
2019-05-23T03:28:09.959Z,2.45
2019-05-23T03:30:42.016Z,3.02
2019-05-23T03:33:13.177Z,2.40
2019-05-23T03:35:44.395Z,2.30
2019-05-23T03:38:14.592Z,1.90
2019-05-23T03:40:44.090Z,2.08
2019-05-23T03:43:13.673Z,2.12
2019-05-23T03:45:47.937Z,2.22
2019-05-23T03:48:19.062Z,2.12
2019-05-23T03:50:50.680Z,2.10
2019-05-23T03:53:21.717Z,2.15
2019-05-23T03:55:53.425Z,2.20
2019-05-23T03:58:24.025Z,2.40
2019-05-23T04:00:58.296Z,2.05
2019-05-23T04:03:29.795Z,2.90
2019-05-23T04:05:59.829Z,2.80
2019-05-23T04:08:29.968Z,2.60
2019-05-23T04:11:00.606Z,2.90
2019-05-23T04:13:30.543Z,2.55
2019-05-23T04:16:00.460Z,2.67
2019-05-23T04:18:30.319Z,2.58
2019-05-23T04:21:00.330Z,3.00
2019-05-23T04:23:29.990Z,2.95
2019-05-23T04:25:59.936Z,2.72
2019-05-23T04:28:29.667Z,2.58
2019-05-23T04:30:59.595Z,2.83
2019-05-23T04:33:29.421Z,2.50
2019-05-23T04:35:59.209Z,2.22
2019-05-23T04:38:28.915Z,2.20
2019-05-23T04:40:58.403Z,2.55
2019-05-23T04:43:28.333Z,2.15
2019-05-23T04:45:57.790Z,2.42
2019-05-23T04:48:28.098Z,1.80
2019-05-23T04:51:00.141Z,1.82
2019-05-23T04:53:29.599Z,2.30
2019-05-23T04:55:59.050Z,1.98
2019-05-23T04:58:29.181Z,2.22
2019-05-23T05:00:58.907Z,1.87
2019-05-23T05:03:28.627Z,1.75
2019-05-23T05:05:58.167Z,2.33
2019-05-23T05:08:28.094Z,2.00
2019-05-23T05:11:00.467Z,1.80
2019-05-23T05:13:31.917Z,1.80
2019-05-23T05:16:01.341Z,1.80
2019-05-23T05:18:30.794Z,1.95
2019-05-23T05:21:00.210Z,1.57
2019-05-23T05:23:29.623Z,1.82
2019-05-23T05:25:59.079Z,1.60
2019-05-23T05:28:28.605Z,1.55
2019-05-23T05:30:58.149Z,1.90
2019-05-23T05:33:27.570Z,1.62
2019-05-23T05:35:57.290Z,1.60
2019-05-23T05:38:28.895Z,1.75
2019-05-23T05:40:58.303Z,1.90
2019-05-23T05:43:28.039Z,2.20
2019-05-23T05:45:57.475Z,2.08
2019-05-23T05:48:27.261Z,2.12
2019-05-23T05:50:56.697Z,1.90
2019-05-23T05:53:26.258Z,2.20
2019-05-23T05:55:55.712Z,2.00
2019-05-23T05:58:25.129Z,2.10
2019-05-23T06:00:56.122Z,1.98
2019-05-23T06:03:25.255Z,1.50
2019-05-23T06:06:05.523Z,1.52
2019-05-23T06:08:36.738Z,1.85
2019-05-23T06:11:06.049Z,1.77
2019-05-23T06:13:35.297Z,1.40
2019-05-23T06:16:05.336Z,1.43
2019-05-23T06:18:34.474Z,1.80
2019-05-23T06:21:04.209Z,1.80
2019-05-23T06:23:34.248Z,1.50
2019-05-23T06:26:03.294Z,1.30
2019-05-23T06:28:33.132Z,1.20
2019-05-23T06:31:02.564Z,1.00
2019-05-23T06:33:32.209Z,1.20
2019-05-23T06:36:01.983Z,1.30
2019-05-23T06:38:31.687Z,2.00
2019-05-23T06:41:02.834Z,1.50
2019-05-23T06:43:33.699Z,1.40
2019-05-23T06:46:02.954Z,1.40
2019-05-23T06:48:32.101Z,1.30
2019-05-23T06:51:01.170Z,1.20
2019-05-23T06:53:30.279Z,1.30
2019-05-23T06:55:59.331Z,1.53
2019-05-23T06:58:29.222Z,1.40
2019-05-23T07:00:58.389Z,1.60
2019-05-23T07:03:41.211Z,2.10
2019-05-23T07:05:59.680Z,1.43
2019-05-23T07:08:30.763Z,1.70
2019-05-23T07:10:59.877Z,1.47
2019-05-23T07:13:31.799Z,1.70
2019-05-23T07:16:01.107Z,1.50
2019-05-23T07:18:30.526Z,1.40
2019-05-23T07:20:59.670Z,1.33
2019-05-23T07:23:29.814Z,2.47
2019-05-23T07:25:58.958Z,2.00
2019-05-23T07:28:28.184Z,1.43
2019-05-23T07:30:57.750Z,1.73
2019-05-23T07:33:26.875Z,1.67
2019-05-23T07:35:56.805Z,1.50
2019-05-23T07:38:25.922Z,1.70
2019-05-23T07:40:55.758Z,1.40
2019-05-23T07:43:24.888Z,2.47
2019-05-23T07:45:55.668Z,1.30
2019-05-23T07:48:25.406Z,1.07
2019-05-23T07:50:54.554Z,1.30
2019-05-23T07:53:44.054Z,1.53
2019-05-23T07:56:14.451Z,1.30
2019-05-23T07:58:44.180Z,1.37
2019-05-23T08:01:15.027Z,1.73
2019-05-23T08:03:45.379Z,1.50
2019-05-23T08:06:14.691Z,1.80
2019-05-23T08:08:44.122Z,1.70
2019-05-23T08:11:13.348Z,1.80
2019-05-23T08:13:42.589Z,1.63
2019-05-23T08:16:12.528Z,1.37
2019-05-23T08:18:42.621Z,1.50
2019-05-23T08:21:11.744Z,1.67
2019-05-23T08:23:40.873Z,1.30
2019-05-23T08:26:11.088Z,1.70
2019-05-23T08:29:00.481Z,1.50
2019-05-23T08:31:11.612Z,1.63
2019-05-23T08:33:41.507Z,1.77
2019-05-23T08:36:11.145Z,1.70
2019-05-23T08:38:40.680Z,1.47
2019-05-23T08:41:09.802Z,1.77
2019-05-23T08:43:38.879Z,2.10
2019-05-23T08:46:08.887Z,1.70
2019-05-23T08:48:38.011Z,1.70
2019-05-23T08:51:07.148Z,1.50
2019-05-23T08:53:36.264Z,1.60
2019-05-23T08:56:18.034Z,1.60
2019-05-23T08:58:36.277Z,1.30
2019-05-23T09:01:07.006Z,1.50
2019-05-23T09:03:36.064Z,1.67
2019-05-23T09:06:05.183Z,1.60
2019-05-23T09:08:34.332Z,1.80
2019-05-23T09:11:03.569Z,1.60
2019-05-23T09:13:33.353Z,1.90
2019-05-23T09:16:03.075Z,1.67
2019-05-23T09:18:32.280Z,1.43
2019-05-23T09:21:01.528Z,1.73
2019-05-23T09:23:30.677Z,1.90
2019-05-23T09:25:59.866Z,1.50
2019-05-23T09:28:29.481Z,1.80
2019-05-23T09:30:59.109Z,2.07
2019-05-23T09:33:28.221Z,1.47
2019-05-23T09:35:57.659Z,1.40
2019-05-23T09:38:26.869Z,1.10
2019-05-23T09:40:56.393Z,1.30
2019-05-23T09:43:25.614Z,1.40
2019-05-23T09:45:54.772Z,1.30
2019-05-23T09:48:23.988Z,1.40
2019-05-23T09:50:53.082Z,1.40
2019-05-23T09:53:22.405Z,1.20
2019-05-23T09:55:51.514Z,1.30
2019-05-23T09:58:20.574Z,1.00
2019-05-23T10:00:49.630Z,1.00
2019-05-23T10:03:19.050Z,1.00
2019-05-23T10:05:48.193Z,1.20
2019-05-23T10:08:17.322Z,1.20
2019-05-23T10:10:46.834Z,1.20
2019-05-23T10:13:16.062Z,1.30
2019-05-23T10:15:46.753Z,1.30
2019-05-23T10:18:17.455Z,1.40
2019-05-23T10:20:46.673Z,1.23
2019-05-23T10:23:15.908Z,1.30
2019-05-23T10:25:45.575Z,1.53
2019-05-23T10:28:15.635Z,1.30
2019-05-23T10:30:44.875Z,1.73
2019-05-23T10:33:14.111Z,1.33
2019-05-23T10:35:58.968Z,1.50
2019-05-23T10:38:14.078Z,1.53
2019-05-23T10:40:43.759Z,1.80
2019-05-23T10:43:13.068Z,1.90
2019-05-23T10:45:42.289Z,1.40
2019-05-23T10:48:11.939Z,1.80
2019-05-23T10:50:44.742Z,1.80
2019-05-23T10:53:12.603Z,1.50
2019-05-23T10:55:41.665Z,1.67
2019-05-23T10:58:10.919Z,1.87
2019-05-23T11:00:40.812Z,1.50
2019-05-23T11:03:11.709Z,1.70
2019-05-23T11:05:41.139Z,1.87
2019-05-23T11:08:10.682Z,1.50
2019-05-23T11:10:40.710Z,1.70
2019-05-23T11:13:09.845Z,1.80
2019-05-23T11:15:39.183Z,1.60
2019-05-23T11:18:10.215Z,1.57
2019-05-23T11:20:39.365Z,1.40
2019-05-23T11:23:08.539Z,1.37
2019-05-23T11:25:39.737Z,1.30
2019-05-23T11:28:08.832Z,1.43
2019-05-23T11:30:49.633Z,1.90
2019-05-23T11:33:19.344Z,1.27
2019-05-23T11:35:48.661Z,1.30
2019-05-23T11:38:17.730Z,1.47
2019-05-23T11:40:46.818Z,1.80
2019-05-23T11:43:15.928Z,1.50
2019-05-23T11:45:49.315Z,1.70
2019-05-23T11:48:18.681Z,1.70
2019-05-23T11:50:47.775Z,2.00
2019-05-23T11:53:16.905Z,1.77
2019-05-23T11:55:46.456Z,1.53
2019-05-23T11:58:15.688Z,1.70
2019-05-23T12:00:57.834Z,2.27
2019-05-23T12:03:27.110Z,1.97
2019-05-23T12:05:56.239Z,1.93
2019-05-23T12:08:25.341Z,2.30
2019-05-23T12:10:54.461Z,2.40
2019-05-23T12:13:23.600Z,2.60
2019-05-23T12:15:52.926Z,6.07
2019-05-23T12:18:22.676Z,3.13
2019-05-23T12:20:51.793Z,4.77
2019-05-23T12:23:20.916Z,8.17
2019-05-23T12:25:50.584Z,3.20
2019-05-23T12:28:20.209Z,3.00
2019-05-23T12:30:49.335Z,2.50
2019-05-23T12:33:18.441Z,7.53
2019-05-23T12:35:47.492Z,3.90
2019-05-23T12:38:16.619Z,2.30
2019-05-23T12:40:45.806Z,8.30
2019-05-23T12:43:14.886Z,6.20
2019-05-23T12:45:44.135Z,3.53
2019-05-23T12:48:14.893Z,2.40
2019-05-23T12:50:45.615Z,6.63
2019-05-23T12:53:16.149Z,11.20
2019-05-23T12:55:45.302Z,3.97
2019-05-23T12:58:14.368Z,3.70
2019-05-23T13:00:45.170Z,6.20
2019-05-23T13:03:15.626Z,3.87
2019-05-23T13:05:44.761Z,3.40
2019-05-23T13:08:13.997Z,2.00
2019-05-23T13:10:43.068Z,1.93
2019-05-23T13:13:12.268Z,2.63
2019-05-23T13:15:41.389Z,9.67
2019-05-23T13:18:10.637Z,9.20
2019-05-23T13:20:40.187Z,11.13
2019-05-23T13:23:20.339Z,15.03
2019-05-23T13:25:42.812Z,5.30
2019-05-23T13:28:11.940Z,6.33
2019-05-23T13:30:41.557Z,2.17
2019-05-23T13:33:10.934Z,4.37
2019-05-23T13:35:40.349Z,1.13
2019-05-23T13:38:09.485Z,0.90
2019-05-23T13:40:38.645Z,1.00
2019-05-23T13:43:09.137Z,1.70
2019-05-23T13:45:38.525Z,1.23
2019-05-23T13:48:07.675Z,1.17
2019-05-23T13:50:36.907Z,1.17
2019-05-23T13:53:06.665Z,0.80
2019-05-23T13:55:37.201Z,1.50
2019-05-23T13:58:06.318Z,1.10
2019-05-23T14:00:35.555Z,1.07
2019-05-23T14:03:05.580Z,1.07
2019-05-23T14:05:34.680Z,1.10
2019-05-23T14:08:12.189Z,1.27
2019-05-23T14:10:35.054Z,0.90
2019-05-23T14:13:04.170Z,1.03
2019-05-23T14:15:43.963Z,0.97
2019-05-23T14:18:20.642Z,1.10
2019-05-23T14:20:50.006Z,2.17
2019-05-23T14:23:23.614Z,1.97
2019-05-23T14:25:54.303Z,1.47
2019-05-23T14:28:24.107Z,2.33
2019-05-23T14:30:54.836Z,1.30
2019-05-23T14:33:25.557Z,1.60
2019-05-23T14:35:56.973Z,1.63
2019-05-23T14:38:30.807Z,2.10
2019-05-23T14:40:58.648Z,1.70
2019-05-23T14:43:28.682Z,1.90
2019-05-23T14:46:08.020Z,1.47
2019-05-23T14:48:39.421Z,2.10
2019-05-23T14:51:28.844Z,1.98
2019-05-23T14:53:59.791Z,1.80
2019-05-23T14:56:30.938Z,1.98
2019-05-23T14:59:00.299Z,2.00
2019-05-23T15:01:31.390Z,2.33
2019-05-23T15:04:00.742Z,1.65
2019-05-23T15:06:30.160Z,2.08
2019-05-23T15:08:59.704Z,2.62
2019-05-23T15:11:29.267Z,2.02
2019-05-23T15:13:59.070Z,1.95
2019-05-23T15:16:28.485Z,1.95
2019-05-23T15:18:57.962Z,2.00
2019-05-23T15:21:27.557Z,2.33
2019-05-23T15:23:57.012Z,2.17
2019-05-23T15:26:25.860Z,2.30
2019-05-23T15:28:55.294Z,1.90
2019-05-23T15:31:24.745Z,4.10
2019-05-23T15:33:54.253Z,2.10
2019-05-23T15:36:23.674Z,1.67
2019-05-23T15:39:08.059Z,2.20
2019-05-23T15:41:24.246Z,2.62
2019-05-23T15:43:53.674Z,2.27
2019-05-23T15:46:23.594Z,1.98
2019-05-23T15:48:53.299Z,1.75
2019-05-23T15:51:24.287Z,1.92
2019-05-23T15:53:58.155Z,2.25
2019-05-23T15:56:32.362Z,2.00
2019-05-23T15:59:15.605Z,1.90
2019-05-23T16:01:49.258Z,1.90
2019-05-23T16:04:20.285Z,1.62
2019-05-23T16:06:49.707Z,1.62
2019-05-23T16:09:29.470Z,1.50
2019-05-23T16:11:50.733Z,1.90
2019-05-23T16:14:21.081Z,1.42
2019-05-23T16:16:50.508Z,4.90
2019-05-23T16:19:20.019Z,1.75
2019-05-23T16:21:49.447Z,1.70
2019-05-23T16:24:18.958Z,1.57
2019-05-23T16:26:48.695Z,2.62
2019-05-23T16:29:19.685Z,1.70
2019-05-23T16:31:49.114Z,1.30
2019-05-23T16:34:18.549Z,2.00
2019-05-23T16:36:47.912Z,1.70
2019-05-23T16:39:17.440Z,1.47
2019-05-23T16:41:46.842Z,1.70
2019-05-23T16:44:16.250Z,1.50
2019-05-23T16:46:45.665Z,1.30
2019-05-23T16:49:15.139Z,1.27
2019-05-23T16:51:44.562Z,1.55
2019-05-23T16:54:16.032Z,1.70
2019-05-23T16:56:56.020Z,1.87
2019-05-23T16:59:38.977Z,2.62
2019-05-23T17:02:10.175Z,2.12
2019-05-23T17:07:50.558Z,1.52
2019-05-23T17:13:32.751Z,2.72
2019-05-23T17:16:09.820Z,4.33
2019-05-23T17:18:47.011Z,11.08
2019-05-23T17:21:20.738Z,39.85
2019-05-23T17:23:58.347Z,25.72
2019-05-23T17:26:33.362Z,7.50
2019-05-23T17:29:04.392Z,3.40
2019-05-23T17:31:35.397Z,2.20
2019-05-23T17:34:05.119Z,2.00
2019-05-23T17:36:34.557Z,1.77
2019-05-23T17:39:06.453Z,1.70
2019-05-23T17:41:35.878Z,1.77
2019-05-23T17:44:05.801Z,3.65
2019-05-23T17:46:35.418Z,5.08
2019-05-23T17:49:05.772Z,3.77
2019-05-23T17:51:35.190Z,3.15
2019-05-23T17:54:04.606Z,5.28
2019-05-23T17:56:34.023Z,2.58
2019-05-23T17:59:03.670Z,2.00
2019-05-23T18:01:33.301Z,3.50
2019-05-23T18:04:03.135Z,12.13
2019-05-23T18:06:33.421Z,7.78
2019-05-23T18:09:04.851Z,6.60
2019-05-23T18:11:34.594Z,5.72
2019-05-23T18:14:05.059Z,4.70
2019-05-23T18:16:35.686Z,2.60
2019-05-23T18:19:05.418Z,2.90
2019-05-23T18:21:35.143Z,2.15
2019-05-23T18:24:05.202Z,11.75
2019-05-23T18:26:38.702Z,9.33
2019-05-23T18:29:08.739Z,16.25
2019-05-23T18:31:39.750Z,13.72
2019-05-23T18:34:09.501Z,9.33
2019-05-23T18:36:39.760Z,5.78
2019-05-23T18:39:10.301Z,10.15
2019-05-23T18:41:40.226Z,4.08
2019-05-23T18:44:10.068Z,6.53
2019-05-23T18:46:41.186Z,8.60
2019-05-23T18:49:11.318Z,2.40
2019-05-23T18:51:41.147Z,2.50
2019-05-23T18:54:10.694Z,2.60
2019-05-23T18:56:40.217Z,2.15
2019-05-23T18:59:10.159Z,2.45
2019-05-23T19:01:40.081Z,2.90
2019-05-23T19:04:09.625Z,2.83
2019-05-23T19:06:39.542Z,3.00
2019-05-23T19:09:11.924Z,3.00
2019-05-23T19:11:41.297Z,2.47
2019-05-23T19:14:10.789Z,2.17
2019-05-23T19:16:40.256Z,2.90
2019-05-23T19:19:09.774Z,2.67
2019-05-23T19:21:40.216Z,2.83
2019-05-23T19:24:10.243Z,2.12
2019-05-23T19:26:40.163Z,2.62
2019-05-23T19:29:09.593Z,2.87
2019-05-23T19:31:38.960Z,3.87
2019-05-23T19:34:08.375Z,4.20
2019-05-23T19:36:37.910Z,4.00
2019-05-23T19:39:07.438Z,3.40
2019-05-23T19:41:38.277Z,3.10
2019-05-23T19:44:07.909Z,3.45
2019-05-23T19:46:37.351Z,3.52
2019-05-23T19:49:07.073Z,2.87
2019-05-23T19:51:36.495Z,3.50
2019-05-23T19:54:06.519Z,3.40
2019-05-23T19:56:35.928Z,2.87
2019-05-23T19:59:05.665Z,2.75
2019-05-23T20:01:39.064Z,2.87
2019-05-23T20:04:10.092Z,3.20
2019-05-23T20:06:39.673Z,3.30
2019-05-23T20:09:11.578Z,3.42
2019-05-23T20:11:53.838Z,3.25
2019-05-23T20:14:12.144Z,3.47
2019-05-23T20:16:41.668Z,4.10
2019-05-23T20:19:11.803Z,3.67
2019-05-23T20:21:41.220Z,4.62
2019-05-23T20:24:10.663Z,4.90
2019-05-23T20:26:39.989Z,4.70
2019-05-23T20:29:09.424Z,5.20
2019-05-23T20:31:38.909Z,4.50
2019-05-23T20:34:08.531Z,4.47
2019-05-23T20:36:37.955Z,5.28
2019-05-23T20:39:08.127Z,4.55
2019-05-23T20:41:37.894Z,4.60
2019-05-23T20:44:07.251Z,5.67
2019-05-23T20:46:36.779Z,6.35
2019-05-23T20:49:06.256Z,5.80
2019-05-23T20:51:37.014Z,6.50
2019-05-23T20:54:06.439Z,6.67
2019-05-23T20:56:35.864Z,7.05
2019-05-23T20:59:05.892Z,6.30
2019-05-23T21:01:36.874Z,6.40
2019-05-23T21:04:06.731Z,6.00
2019-05-23T21:06:36.172Z,4.58
2019-05-23T21:09:08.008Z,5.55
2019-05-23T21:11:37.536Z,5.33
2019-05-23T21:14:07.042Z,6.22
2019-05-23T21:16:36.469Z,5.87
2019-05-23T21:19:05.872Z,5.67
2019-05-23T21:21:35.302Z,8.33
2019-05-23T21:24:04.950Z,10.10
2019-05-23T21:26:34.646Z,8.25
2019-05-23T21:29:04.080Z,6.67
2019-05-23T21:31:33.485Z,6.10
2019-05-23T21:34:02.902Z,7.55
2019-05-23T21:36:32.838Z,7.28
2019-05-23T21:39:02.259Z,6.17
2019-05-23T21:41:31.676Z,6.10
2019-05-23T21:44:01.108Z,6.35
2019-05-23T21:46:30.735Z,5.62
2019-05-23T21:49:00.146Z,5.85
2019-05-23T21:51:29.588Z,6.40
2019-05-23T21:53:59.172Z,6.67
2019-05-23T21:56:28.617Z,6.92
2019-05-23T21:58:58.045Z,6.85
2019-05-23T22:01:29.054Z,9.35
2019-05-23T22:04:06.151Z,8.20
2019-05-23T22:06:37.261Z,10.55
2019-05-23T22:09:09.179Z,10.50
2019-05-23T22:11:38.957Z,16.07
2019-05-23T22:14:08.702Z,8.95
2019-05-23T22:16:38.875Z,4.70
2019-05-23T22:19:09.959Z,4.35
2019-05-23T22:21:39.412Z,3.45
2019-05-23T22:24:09.893Z,3.27
2019-05-23T22:26:39.424Z,2.75
2019-05-23T22:29:08.962Z,4.30
2019-05-23T22:31:38.616Z,8.90
2019-05-23T22:34:27.728Z,9.33
2019-05-23T22:36:58.771Z,8.85
2019-05-23T22:39:28.205Z,7.03
2019-05-23T22:41:57.657Z,8.08
2019-05-23T22:44:27.307Z,6.42
2019-05-23T22:46:56.754Z,5.40
2019-05-23T22:49:26.218Z,6.62
2019-05-23T22:51:55.671Z,12.73
2019-05-23T22:54:25.124Z,6.00
2019-05-23T22:56:54.580Z,7.67
2019-05-23T22:59:24.008Z,7.22
2019-05-23T23:01:53.473Z,7.42
2019-05-23T23:04:23.327Z,6.15
2019-05-23T23:06:52.776Z,6.03
2019-05-23T23:09:22.404Z,3.37
2019-05-23T23:11:51.984Z,4.03
2019-05-23T23:14:21.407Z,3.55
2019-05-23T23:16:51.379Z,5.00
2019-05-23T23:19:20.915Z,6.00
2019-05-23T23:21:50.368Z,5.45
2019-05-23T23:24:19.801Z,4.37
2019-05-23T23:26:49.235Z,5.12
2019-05-23T23:29:18.661Z,4.42
2019-05-23T23:31:48.103Z,4.90
2019-05-23T23:34:17.545Z,3.27
2019-05-23T23:36:46.982Z,3.47
2019-05-23T23:39:16.515Z,3.62
2019-05-23T23:41:45.952Z,3.50
2019-05-23T23:44:15.569Z,3.33
2019-05-23T23:47:02.957Z,3.52
2019-05-23T23:49:50.088Z,2.90
2019-05-23T23:52:37.553Z,3.20
2019-05-23T23:55:24.912Z,4.05
2019-05-23T23:57:59.581Z,4.10
